Time;durP1;ratioP1;P1;durP2;ratioP2;P2;SDS_P1;SDS_P2;PMS_P1;PMS_P2;Temp;Humidity;BMP_temperature;BMP_pressure;BME280_temperature;BME280_humidity;BME280_pressure;Samples;Min_cycle;Max_cycle;Signal;HPM_P1;HPM_P2
2021/12/08 00:00:23;;;;;;;6.80;6.10;;;;;;;4.29;48.57;94075.28;5030190;28;20029;-72
2021/12/08 00:02:49;;;;;;;8.73;7.60;;;;;;;4.18;48.57;94049.13;5030652;28;20037;-71
2021/12/08 00:05:18;;;;;;;6.38;5.65;;;;;;;4.08;48.69;94064.31;5030773;28;20129;-71
2021/12/08 00:07:45;;;;;;;6.82;6.13;;;;;;;4.24;48.72;94057.72;5030593;28;20552;-71
2021/12/08 00:10:28;;;;;;;8.13;5.93;;;;;;;4.16;48.67;94045.25;5033298;28;20029;-70
2021/12/08 00:13:04;;;;;;;6.78;6.07;;;;;;;4.29;48.45;94054.22;5030234;28;20058;-71
2021/12/08 00:15:51;;;;;;;6.05;5.35;;;;;;;4.16;48.23;94047.88;5029283;28;20368;-71
2021/12/08 00:18:21;;;;;;;8.50;6.13;;;;;;;4.11;48.20;94043.47;5030502;28;20376;-70
2021/12/08 00:20:47;;;;;;;6.90;6.00;;;;;;;4.20;48.22;94035.72;5030166;28;20052;-70
2021/12/08 00:23:14;;;;;;;7.28;6.13;;;;;;;4.08;48.29;94028.25;5030098;28;20042;-70
2021/12/08 00:25:40;;;;;;;6.88;5.70;;;;;;;4.18;48.13;94012.28;5034027;28;20022;-72
2021/12/08 00:28:06;;;;;;;7.00;5.40;;;;;;;4.19;48.00;94002.53;5030340;28;20383;-71
2021/12/08 00:30:33;;;;;;;7.03;5.85;;;;;;;4.27;47.74;94004.50;5030078;28;20029;-71
2021/12/08 00:32:59;;;;;;;6.88;5.82;;;;;;;4.37;47.70;94024.59;5029974;28;20029;-71
2021/12/08 00:35:27;;;;;;;6.20;5.40;;;;;;;4.03;47.35;93965.19;5030466;28;20108;-70
2021/12/08 00:37:53;;;;;;;6.40;5.22;;;;;;;4.33;47.42;93994.66;5030251;28;20352;-72
2021/12/08 00:40:20;;;;;;;6.40;5.80;;;;;;;4.41;47.59;94005.31;5032795;28;20037;-72
2021/12/08 00:42:47;;;;;;;6.78;5.30;;;;;;;4.40;47.24;93992.41;5029851;28;20159;-72
2021/12/08 00:45:14;;;;;;;7.13;5.90;;;;;;;4.38;47.21;93994.56;5030176;28;20057;-72
2021/12/08 00:47:40;;;;;;;6.93;5.40;;;;;;;4.40;47.00;93992.41;5028811;28;20025;-73
2021/12/08 00:50:09;;;;;;;5.43;4.75;;;;;;;4.41;46.90;93991.38;5029690;28;20148;-72
2021/12/08 00:52:35;;;;;;;6.18;5.57;;;;;;;4.34;47.16;93983.06;5029718;28;20029;-73
2021/12/08 00:55:02;;;;;;;7.00;5.60;;;;;;;4.41;47.10;93991.38;5028314;28;20444;-72
2021/12/08 00:57:27;;;;;;;6.20;5.60;;;;;;;4.43;47.21;93989.97;5037441;28;20148;-74
2021/12/08 00:59:52;;;;;;;5.13;4.63;;;;;;;4.34;47.47;93985.69;5029598;28;20112;-72
2021/12/08 01:02:18;;;;;;;5.53;5.00;;;;;;;4.31;47.13;93973.91;5029179;28;20160;-70
2021/12/08 01:04:44;;;;;;;5.95;4.57;;;;;;;4.43;46.87;93992.63;5030092;28;20022;-72
2021/12/08 01:07:10;;;;;;;8.20;4.88;;;;;;;4.38;47.10;93973.50;5029848;28;20076;-70
2021/12/08 01:09:35;;;;;;;8.30;4.53;;;;;;;4.48;46.77;93986.47;5029464;28;20482;-70
2021/12/08 01:12:03;;;;;;;6.18;5.28;;;;;;;4.46;47.06;93975.47;5032469;28;20031;-72
2021/12/08 01:14:30;;;;;;;5.80;4.70;;;;;;;4.45;46.89;93968.63;5030044;28;20041;-71
2021/12/08 01:16:56;;;;;;;5.90;4.72;;;;;;;4.53;46.52;93970.56;5028522;28;20053;-70
2021/12/08 01:19:22;;;;;;;5.38;4.88;;;;;;;4.61;46.51;93974.38;5029415;28;20406;-71
2021/12/08 01:21:48;;;;;;;7.38;4.40;;;;;;;4.64;46.53;93982.47;5029350;28;20037;-71
2021/12/08 01:24:14;;;;;;;8.43;4.80;;;;;;;4.72;46.13;93974.94;5029253;28;20084;-72
2021/12/08 01:26:40;;;;;;;5.03;4.30;;;;;;;4.72;46.08;93977.59;5037357;28;20585;-71
2021/12/08 01:29:07;;;;;;;5.78;4.60;;;;;;;4.78;46.04;93971.13;5029285;28;20025;-70
2021/12/08 01:31:33;;;;;;;4.82;4.30;;;;;;;4.75;45.52;93961.19;5029542;28;20593;-70
2021/12/08 01:33:58;;;;;;;4.65;4.22;;;;;;;4.91;45.42;93960.56;5029327;28;20124;-73
2021/12/08 01:36:24;;;;;;;6.10;4.60;;;;;;;4.88;45.54;93963.78;5029686;28;20025;-70
2021/12/08 01:38:49;;;;;;;6.57;4.80;;;;;;;4.89;45.53;93967.19;5028847;28;20068;-70
2021/12/08 01:41:15;;;;;;;5.32;4.35;;;;;;;4.80;45.54;93964.47;5032751;28;20600;-70
2021/12/08 01:43:43;;;;;;;5.90;4.53;;;;;;;4.60;45.63;93944.59;5029417;28;20112;-73
2021/12/08 01:46:11;;;;;;;6.85;4.80;;;;;;;4.63;45.58;93951.94;5029739;28;20025;-74
2021/12/08 01:48:39;;;;;;;7.00;4.45;;;;;;;4.73;45.72;93956.22;5029662;28;20026;-72
2021/12/08 01:51:17;;;;;;;5.32;4.15;;;;;;;4.74;45.80;93960.41;5029247;28;20029;-73
2021/12/08 01:53:47;;;;;;;5.18;4.60;;;;;;;4.69;45.79;93944.69;5028699;28;20030;-72
2021/12/08 01:56:13;;;;;;;4.80;4.20;;;;;;;4.61;46.03;93946.19;5029219;28;20037;-72
2021/12/08 01:58:39;;;;;;;6.80;4.85;;;;;;;4.67;45.83;93955.53;5028182;28;20029;-72
2021/12/08 02:01:11;;;;;;;5.35;4.35;;;;;;;4.67;45.93;93954.75;5029099;28;20464;-72
2021/12/08 02:03:37;;;;;;;4.75;4.25;;;;;;;4.62;46.13;93942.47;5029142;28;20026;-72
2021/12/08 02:06:06;;;;;;;6.72;4.60;;;;;;;4.68;46.00;93943.94;5029876;28;20541;-74
2021/12/08 02:08:33;;;;;;;7.63;4.10;;;;;;;4.73;46.31;93935.13;5029109;28;20022;-72
2021/12/08 02:11:01;;;;;;;4.97;4.40;;;;;;;4.87;45.89;93943.78;5032851;28;20026;-72
2021/12/08 02:13:31;;;;;;;5.15;4.47;;;;;;;5.09;45.50;93948.31;5029166;28;20028;-72
2021/12/08 02:15:56;;;;;;;5.05;4.18;;;;;;;5.28;45.76;93942.09;5032293;28;20578;-74
2021/12/08 02:18:21;;;;;;;7.18;4.25;;;;;;;5.44;44.87;93933.53;5031903;28;20065;-71
2021/12/08 02:20:49;;;;;;;4.80;3.90;;;;;;;5.52;45.00;93926.72;5032908;28;20387;-71
2021/12/08 02:23:16;;;;;;;4.28;3.88;;;;;;;5.53;44.04;93943.34;5033020;28;20022;-71
2021/12/08 02:25:42;;;;;;;6.00;3.83;;;;;;;5.59;44.55;93916.56;5036522;28;20567;-71
2021/12/08 02:28:08;;;;;;;4.45;3.80;;;;;;;5.79;44.46;93932.97;5033181;28;20040;-71
2021/12/08 02:47:07;;;;;;;5.53;4.72;;;;;;;5.22;44.90;93928.25;5032602;28;20088;-70
2021/12/08 02:49:33;;;;;;;4.05;3.70;;;;;;;5.24;44.66;93920.06;5032560;28;20046;-71
2021/12/08 02:51:59;;;;;;;5.75;4.35;;;;;;;5.35;44.63;93934.53;5032511;28;20468;-70
2021/12/08 02:54:25;;;;;;;4.20;3.80;;;;;;;5.46;44.97;93943.78;5032238;28;20537;-70
2021/12/08 02:56:54;;;;;;;4.78;4.20;;;;;;;5.43;44.56;93926.69;5044356;28;20025;-71
2021/12/08 02:59:19;;;;;;;6.15;4.63;;;;;;;5.58;44.85;93930.03;5032141;28;20644;-71
2021/12/08 03:01:45;;;;;;;4.63;3.85;;;;;;;5.72;44.70;93936.00;5031875;28;20025;-70
2021/12/08 03:04:10;;;;;;;4.50;3.70;;;;;;;5.79;44.67;93925.81;5030815;28;20039;-71
2021/12/08 03:06:37;;;;;;;4.80;3.90;;;;;;;5.84;44.23;93917.00;5032025;28;20025;-70
2021/12/08 03:09:06;;;;;;;5.50;4.18;;;;;;;5.87;43.97;93916.38;5030946;28;20029;-70
2021/12/08 03:11:32;;;;;;;6.55;4.40;;;;;;;6.01;43.91;93922.38;5035355;28;20018;-72
2021/12/08 03:14:12;;;;;;;5.10;4.60;;;;;;;6.11;43.49;93924.75;5031934;28;20032;-71
2021/12/08 03:16:41;;;;;;;5.32;4.00;;;;;;;6.19;43.12;93918.72;5030905;28;20018;-70
2021/12/08 03:19:07;;;;;;;4.68;4.18;;;;;;;6.21;43.08;93913.91;5030474;28;20018;-70
2021/12/08 03:21:34;;;;;;;5.03;4.00;;;;;;;6.38;43.08;93918.44;5031505;28;20022;-70
2021/12/08 03:26:33;;;;;;;7.38;4.55;;;;;;;6.50;43.50;93923.94;5035202;28;20022;-71
2021/12/08 03:29:14;;;;;;;5.63;4.65;;;;;;;6.44;42.82;93906.66;5029625;28;20028;-71
2021/12/08 03:31:42;;;;;;;4.85;3.90;;;;;;;6.48;42.46;93902.31;5031068;28;20026;-71
2021/12/08 03:34:08;;;;;;;7.00;4.30;;;;;;;6.48;42.61;93907.59;5030030;28;20598;-70
2021/12/08 03:36:33;;;;;;;4.85;4.38;;;;;;;6.52;42.36;93907.78;5031446;28;20129;-71
2021/12/08 03:38:59;;;;;;;4.88;4.35;;;;;;;6.59;42.23;93916.00;5030221;28;20025;-71
2021/12/08 03:41:26;;;;;;;6.70;4.63;;;;;;;6.59;42.32;93897.53;5042999;28;20052;-71
2021/12/08 03:43:51;;;;;;;7.70;4.15;;;;;;;6.73;42.54;93910.59;5029877;28;20566;-71
2021/12/08 03:46:18;;;;;;;6.20;4.50;;;;;;;6.71;41.69;93920.72;5031010;28;20039;-72
2021/12/08 03:48:47;;;;;;;5.38;4.88;;;;;;;6.68;41.80;93895.66;5030073;28;20438;-71
2021/12/08 03:51:14;;;;;;;5.40;4.60;;;;;;;6.50;42.64;93900.16;5030782;28;20026;-71
2021/12/08 03:53:40;;;;;;;6.10;4.63;;;;;;;6.57;42.21;93894.41;5030751;28;20044;-72
2021/12/08 03:56:06;;;;;;;5.20;4.70;;;;;;;6.76;42.41;93910.78;5032522;28;20029;-71
2021/12/08 03:58:31;;;;;;;6.80;4.53;;;;;;;6.72;41.82;93887.91;5029215;28;20152;-71
2021/12/08 04:00:58;;;;;;;6.50;4.40;;;;;;;6.62;41.05;93904.06;5030653;28;20072;-72
2021/12/08 04:03:26;;;;;;;6.10;4.25;;;;;;;6.51;42.29;93898.28;5030494;28;20112;-70
2021/12/08 04:05:55;;;;;;;6.65;4.45;;;;;;;6.62;42.49;93899.56;5030834;28;20673;-71
2021/12/08 04:08:31;;;;;;;5.05;4.35;;;;;;;6.79;42.55;93917.28;5030639;28;20053;-70
2021/12/08 04:10:59;;;;;;;6.15;4.50;;;;;;;6.69;42.24;93913.06;5029770;28;20037;-71
2021/12/08 04:13:31;;;;;;;5.13;4.43;;;;;;;6.73;42.09;93937.81;5010613;28;20526;-71
2021/12/08 04:15:57;;;;;;;;;;;;;;;6.58;41.99;93950.69;5010034;28;20022;-71
2021/12/08 04:18:23;;;;;;;5.43;4.93;;;;;;;6.19;43.11;93947.78;5009494;28;19963;-71
2021/12/08 04:20:54;;;;;;;5.53;4.53;;;;;;;6.35;42.04;93947.34;5010354;28;20042;-71
2021/12/08 04:23:23;;;;;;;4.53;4.13;;;;;;;6.45;42.50;93928.59;5010482;28;20646;-71
2021/12/08 04:25:52;;;;;;;5.43;4.63;;;;;;;6.59;43.00;93937.16;5027789;28;20055;-71
2021/12/08 04:28:23;;;;;;;4.85;4.32;;;;;;;6.67;42.56;93931.13;5029477;28;20029;-71
2021/12/08 04:30:58;;;;;;;5.63;5.05;;;;;;;6.83;42.39;93935.97;5029906;28;20044;-71
2021/12/08 04:33:24;;;;;;;8.23;4.90;;;;;;;6.89;43.08;93934.72;5030126;28;20021;-71
2021/12/08 04:35:52;;;;;;;5.32;4.78;;;;;;;6.93;42.38;93925.09;5030178;28;20029;-71
2021/12/08 04:38:25;;;;;;;5.53;4.75;;;;;;;6.99;42.35;93921.97;5029589;28;20034;-71
2021/12/08 04:41:05;;;;;;;5.05;4.57;;;;;;;7.10;42.09;93942.81;5028935;28;20025;-71
2021/12/08 05:01:28;;;;;;;5.00;4.47;;;;;;;7.39;42.05;93971.31;5030054;28;20570;-71
2021/12/08 05:06:37;;;;;;;4.78;4.20;;;;;;;7.31;42.39;93967.56;5029946;28;20060;-70
2021/12/08 05:09:15;;;;;;;4.45;4.05;;;;;;;7.32;42.37;93955.09;5029434;28;20026;-70
2021/12/08 05:11:45;;;;;;;5.55;4.63;;;;;;;7.39;41.99;93956.22;5026996;28;20116;-71
2021/12/08 05:14:25;;;;;;;4.65;4.13;;;;;;;7.09;41.53;93949.97;5029904;28;20549;-70
2021/12/08 05:17:01;;;;;;;4.68;3.88;;;;;;;6.48;42.90;93959.66;5029543;28;20017;-71
2021/12/08 05:19:30;;;;;;;5.22;4.10;;;;;;;6.31;44.04;93952.47;5028029;28;20056;-70
2021/12/08 05:22:09;;;;;;;4.20;3.78;;;;;;;5.18;46.57;93953.66;5029475;28;20033;-71
2021/12/08 05:24:40;;;;;;;5.10;4.47;;;;;;;5.39;46.55;93964.50;5029223;28;20042;-70
2021/12/08 05:27:29;;;;;;;4.40;3.80;;;;;;;6.21;45.39;93964.06;5031830;28;20121;-70
2021/12/08 05:30:05;;;;;;;5.22;4.03;;;;;;;6.68;44.41;93977.59;5027760;28;20026;-70
2021/12/08 05:32:30;;;;;;;5.32;3.60;;;;;;;7.06;43.80;93981.53;5029292;28;20029;-70
2021/12/08 05:34:56;;;;;;;4.43;3.92;;;;;;;7.25;43.54;93972.22;5028199;28;20383;-71
2021/12/08 05:37:25;;;;;;;4.90;4.35;;;;;;;7.43;43.32;93964.31;5029512;28;20022;-71
2021/12/08 05:39:53;;;;;;;4.20;3.53;;;;;;;7.62;43.46;93969.25;5028490;28;20064;-72
2021/12/08 05:42:23;;;;;;;3.83;3.22;;;;;;;7.62;42.20;93961.31;5031319;28;20037;-70
2021/12/08 05:44:49;;;;;;;4.32;3.53;;;;;;;7.75;42.59;93977.03;5029067;28;20059;-70
2021/12/08 05:47:21;;;;;;;3.90;3.33;;;;;;;7.80;42.24;93979.50;5027606;28;20033;-70
2021/12/08 05:49:47;;;;;;;;;;;;;;;7.89;41.72;93976.09;5030404;28;20025;-70
2021/12/08 05:52:13;;;;;;;4.18;3.75;;;;;;;7.90;41.81;93975.75;5033135;28;19966;-70
2021/12/08 05:54:43;;;;;;;4.68;3.53;;;;;;;7.95;41.84;93977.47;5032574;28;20057;-69
2021/12/08 05:57:16;;;;;;;5.15;3.72;;;;;;;7.34;42.13;93945.78;5036972;28;20021;-69
2021/12/08 05:59:43;;;;;;;3.80;3.50;;;;;;;7.60;42.30;93985.44;5032690;28;20022;-67
2021/12/08 06:02:15;;;;;;;3.83;3.30;;;;;;;7.79;42.28;93977.19;5031542;28;20471;-69
2021/12/08 06:04:41;;;;;;;4.00;3.40;;;;;;;7.90;41.97;93983.69;5033202;28;20398;-77
2021/12/08 06:07:08;;;;;;;3.08;2.78;;;;;;;8.01;41.78;93981.50;5032228;28;20028;-79
2021/12/08 06:09:35;;;;;;;3.25;2.53;;;;;;;8.11;41.41;93975.09;5032206;28;20115;-71
2021/12/08 06:12:04;;;;;;;3.90;3.47;;;;;;;8.12;41.68;93969.47;5031308;28;20709;-73
2021/12/08 06:14:32;;;;;;;3.25;2.95;;;;;;;8.10;41.26;93965.59;5032401;28;20025;-72
2021/12/08 06:17:06;;;;;;;3.47;3.17;;;;;;;8.23;41.37;93964.59;5032648;28;20029;-72
2021/12/08 06:19:35;;;;;;;2.63;2.40;;;;;;;8.26;41.35;93958.66;5033260;28;20028;-82
2021/12/08 06:22:04;;;;;;;4.55;2.92;;;;;;;8.32;41.14;93968.78;5033252;28;20029;-83
2021/12/08 06:24:30;;;;;;;3.08;2.78;;;;;;;8.35;41.21;93970.03;5032048;28;20430;-75
2021/12/08 06:26:55;;;;;;;3.03;2.78;;;;;;;8.40;40.90;93958.50;5036673;28;20035;-68
2021/12/08 06:29:22;;;;;;;3.28;2.83;;;;;;;8.48;40.58;93974.34;5032967;28;20349;-70
2021/12/08 06:31:52;;;;;;;3.75;2.53;;;;;;;8.49;40.88;93977.78;5032683;28;20061;-69
2021/12/08 06:34:19;;;;;;;2.95;2.60;;;;;;;8.51;40.96;93976.38;5032608;28;20136;-70
2021/12/08 06:36:51;;;;;;;3.28;2.97;;;;;;;8.44;40.88;93964.69;5033241;28;20105;-69
2021/12/08 06:39:22;;;;;;;2.55;2.30;;;;;;;8.56;40.86;93955.00;5030251;28;20034;-70
2021/12/08 06:41:52;;;;;;;3.15;2.55;;;;;;;8.68;40.68;93972.84;5033192;28;20108;-70
2021/12/08 06:44:29;;;;;;;3.40;2.80;;;;;;;8.78;40.61;93967.19;5033134;28;20109;-78
2021/12/08 06:46:56;;;;;;;3.33;3.03;;;;;;;8.76;40.48;93960.66;5033820;28;20558;-72
2021/12/08 06:49:22;;;;;;;4.00;3.08;;;;;;;8.78;40.86;93953.16;5032712;28;20459;-73
2021/12/08 06:52:10;;;;;;;3.33;2.45;;;;;;;8.75;40.64;93941.34;5031245;28;20039;-75
2021/12/08 06:54:45;;;;;;;3.65;2.67;;;;;;;8.76;40.54;93945.53;5032938;28;20033;-76
2021/12/08 06:57:20;;;;;;;3.50;3.05;;;;;;;8.71;40.93;93939.63;5030043;28;20024;-82
2021/12/08 06:59:58;;;;;;;3.38;2.40;;;;;;;8.64;41.02;93940.13;5031617;28;20026;-74
2021/12/08 07:03:18;;;;;;;3.40;2.40;;;;;;;8.74;40.56;93957.53;5012887;28;20025;-68
2021/12/08 07:05:53;;;;;;;2.88;2.40;;;;;;;8.79;40.82;93950.19;5010966;28;20415;-67
2021/12/08 07:08:18;;;;;;;4.65;2.58;;;;;;;8.93;40.79;93946.53;5012206;28;20559;-72
2021/12/08 07:10:46;;;;;;;3.22;2.70;;;;;;;8.91;40.61;93940.78;5012389;28;20033;-74
2021/12/08 07:13:16;;;;;;;2.80;2.55;;;;;;;9.06;40.64;93956.13;5029985;28;20638;-70
2021/12/08 07:15:52;;;;;;;2.78;2.20;;;;;;;9.08;40.48;93952.03;5032130;28;20028;-72
2021/12/08 07:18:24;;;;;;;3.10;2.33;;;;;;;9.26;40.33;93967.81;5025957;28;20705;-67
2021/12/08 07:20:59;;;;;;;2.50;2.30;;;;;;;9.16;39.86;93955.69;5029453;28;20107;-68
2021/12/08 07:23:28;;;;;;;3.00;2.70;;;;;;;9.21;40.23;93960.03;5029231;28;20372;-69
2021/12/08 07:25:57;;;;;;;3.22;2.50;;;;;;;9.32;40.32;93967.31;5032145;28;20032;-70
2021/12/08 07:28:26;;;;;;;4.45;3.22;;;;;;;9.33;39.96;93974.16;5023826;28;20614;-69
2021/12/08 07:31:26;;;;;;;3.95;2.83;;;;;;;9.41;40.12;93959.25;5030324;28;20025;-69
2021/12/08 07:33:54;;;;;;;4.05;2.47;;;;;;;9.42;39.69;93957.38;5023525;28;20060;-69
2021/12/08 07:36:23;;;;;;;5.72;2.63;;;;;;;9.48;39.68;93962.19;5030673;28;20038;-69
2021/12/08 07:38:53;;;;;;;3.33;2.13;;;;;;;9.56;39.44;93947.28;5031006;28;20044;-69
2021/12/08 07:41:41;;;;;;;3.00;2.20;;;;;;;9.64;38.70;93957.81;5033943;28;20034;-70
2021/12/08 07:44:10;;;;;;;2.60;1.98;;;;;;;9.73;39.21;93951.69;5032562;28;20087;-69
2021/12/08 07:46:46;;;;;;;2.45;2.10;;;;;;;9.79;39.24;93942.41;5031010;28;20022;-69
2021/12/08 07:49:23;;;;;;;4.43;2.60;;;;;;;9.80;39.10;93954.56;5029202;28;20088;-69
2021/12/08 07:51:53;;;;;;;3.67;2.22;;;;;;;9.84;38.80;93939.53;5030637;28;20033;-70
2021/12/08 07:54:21;;;;;;;3.08;2.53;;;;;;;9.80;38.71;93944.72;5030107;28;20025;-68
2021/12/08 07:56:50;;;;;;;5.32;2.50;;;;;;;8.97;39.47;93947.44;5029804;28;20033;-69
2021/12/08 07:59:19;;;;;;;2.92;2.60;;;;;;;7.09;43.35;93938.63;5034401;28;20100;-69
2021/12/08 08:01:48;;;;;;;2.40;2.20;;;;;;;6.85;44.33;93917.91;5030571;28;20033;-69
2021/12/08 08:04:19;;;;;;;3.22;2.50;;;;;;;6.72;45.98;93941.53;5030696;28;20021;-68
2021/12/08 08:06:50;;;;;;;3.40;2.53;;;;;;;7.43;45.15;93937.84;5029316;28;20424;-70
2021/12/08 08:09:24;;;;;;;7.20;3.03;;;;;;;7.49;44.36;93931.28;5030295;28;20021;-69
2021/12/08 08:11:57;;;;;;;12.45;3.75;;;;;;;6.76;46.37;93924.00;5031770;28;20113;-69
2021/12/08 08:14:39;;;;;;;6.97;3.15;;;;;;;7.82;45.37;93924.38;5030148;28;20706;-68
2021/12/08 08:17:13;;;;;;;8.70;3.55;;;;;;;7.47;45.11;93918.38;5029105;28;20047;-68
2021/12/08 08:19:44;;;;;;;4.97;2.65;;;;;;;7.91;45.16;93902.41;5030510;28;20045;-69
2021/12/08 08:22:17;;;;;;;13.23;3.03;;;;;;;7.37;45.44;93907.31;5030384;28;20359;-69
2021/12/08 08:24:43;;;;;;;5.18;3.03;;;;;;;7.60;45.18;93900.75;5030554;28;20088;-69
2021/12/08 08:27:11;;;;;;;3.25;2.72;;;;;;;7.40;44.94;93888.97;5029760;28;20017;-71
2021/12/08 08:29:37;;;;;;;7.38;3.30;;;;;;;6.86;47.65;93885.91;5033737;28;20220;-68
2021/12/08 08:32:16;;;;;;;5.45;3.47;;;;;;;7.72;45.52;93871.75;5029814;28;20079;-68
2021/12/08 08:34:44;;;;;;;4.00;3.45;;;;;;;7.94;45.37;93877.94;5028431;28;20095;-68
2021/12/08 08:37:17;;;;;;;3.88;3.10;;;;;;;8.72;44.28;93869.59;5030142;28;20188;-68
2021/12/08 08:40:14;;;;;;;3.75;2.70;;;;;;;9.19;42.77;93883.44;5029659;28;20028;-71
2021/12/08 08:42:41;;;;;;;6.57;3.35;;;;;;;9.40;42.52;93872.00;5028540;28;20025;-70
2021/12/08 08:45:13;;;;;;;4.22;3.45;;;;;;;9.77;42.45;93881.63;5032191;28;20029;-69
2021/12/08 08:48:00;;;;;;;4.65;3.42;;;;;;;10.05;41.49;93875.72;5030076;28;20614;-70
2021/12/08 08:50:35;;;;;;;4.88;3.22;;;;;;;10.25;40.43;93874.88;5029484;28;20030;-69
2021/12/08 08:53:06;;;;;;;3.40;2.35;;;;;;;10.08;39.71;93875.81;5029745;28;20482;-69
2021/12/08 08:55:41;;;;;;;3.28;2.55;;;;;;;9.69;40.80;93874.53;5027800;28;20553;-69
2021/12/08 08:58:08;;;;;;;2.90;2.42;;;;;;;10.09;40.57;93877.38;5033509;28;20414;-70
2021/12/08 09:00:44;;;;;;;4.85;2.58;;;;;;;10.22;40.48;93883.47;5029214;28;20172;-70
2021/12/08 09:03:16;;;;;;;3.08;2.72;;;;;;;10.33;39.99;93889.91;5029492;28;20026;-69
2021/12/08 09:05:51;;;;;;;6.90;3.63;;;;;;;10.41;40.45;93899.66;5029884;28;20041;-70
2021/12/08 09:08:22;;;;;;;4.95;3.30;;;;;;;10.52;40.20;93876.06;5029841;28;20426;-69
2021/12/08 09:11:12;;;;;;;8.80;3.50;;;;;;;10.68;39.84;93868.19;5029106;28;20367;-71
2021/12/08 09:13:44;;;;;;;5.80;3.70;;;;;;;10.66;40.15;93863.22;5033218;28;20288;-70
2021/12/08 09:16:15;;;;;;;4.43;3.08;;;;;;;10.79;40.19;93861.28;5029565;28;20100;-70
2021/12/08 09:19:04;;;;;;;6.78;3.55;;;;;;;10.69;39.64;93864.41;5028565;28;20065;-70
2021/12/08 09:21:29;;;;;;;6.38;3.28;;;;;;;10.80;39.88;93870.84;5028039;28;20033;-71
2021/12/08 09:24:20;;;;;;;7.00;3.90;;;;;;;11.04;39.30;93866.56;5028364;28;20025;-70
2021/12/08 09:26:53;;;;;;;7.77;3.53;;;;;;;11.16;38.88;93879.84;5028807;28;20029;-70
2021/12/08 09:29:27;;;;;;;5.75;3.38;;;;;;;11.24;39.05;93881.56;5032941;28;20418;-70
2021/12/08 09:32:25;;;;;;;4.53;2.88;;;;;;;11.44;38.94;93885.94;5027794;28;20032;-67
2021/12/08 09:34:57;;;;;;;10.15;4.00;;;;;;;11.30;39.59;93879.44;5009028;28;20095;-69
2021/12/08 09:37:24;;;;;;;;;;;;;;;11.47;39.42;93887.16;5030264;28;20029;-69
2021/12/08 09:39:59;;;;;;;6.82;4.05;;;;;;;11.58;38.81;93882.09;5029602;28;20003;-67
2021/12/08 09:42:31;;;;;;;6.30;3.70;;;;;;;11.57;38.70;93872.56;5032898;28;20090;-68
2021/12/08 09:45:08;;;;;;;5.93;4.00;;;;;;;11.59;38.32;93868.44;5026544;28;20674;-68
2021/12/08 09:47:33;;;;;;;6.72;4.05;;;;;;;11.63;38.09;93865.88;5009995;28;20033;-69
2021/12/08 09:50:01;;;;;;;6.05;3.50;;;;;;;11.59;37.84;93860.47;5010041;28;20026;-69
2021/12/08 09:52:27;;;;;;;10.38;4.47;;;;;;;11.71;37.36;93852.38;5009711;28;20037;-69
2021/12/08 09:54:56;;;;;;;5.90;3.67;;;;;;;11.59;37.52;93857.03;5024963;28;20030;-69
2021/12/08 09:57:21;;;;;;;8.13;3.83;;;;;;;11.38;37.79;93850.03;5026833;28;20036;-69
2021/12/08 09:59:47;;;;;;;8.50;3.63;;;;;;;11.35;38.07;93834.72;5033872;28;20025;-69
2021/12/08 10:02:30;;;;;;;8.95;3.53;;;;;;;11.26;37.59;93834.09;5027585;28;20060;-68
2021/12/08 10:04:58;;;;;;;5.32;3.40;;;;;;;9.92;39.42;93826.31;5029573;28;20025;-70
2021/12/08 10:07:25;;;;;;;4.90;3.40;;;;;;;10.49;39.62;93812.16;5028154;28;20022;-70
2021/12/08 10:09:51;;;;;;;7.18;3.58;;;;;;;10.80;39.84;93819.50;5027826;28;20069;-69
2021/12/08 10:12:18;;;;;;;5.85;3.35;;;;;;;10.88;39.08;93815.94;5021226;28;20053;-69
2021/12/08 10:14:46;;;;;;;5.28;3.42;;;;;;;10.96;39.32;93804.41;5046480;28;20025;-69
2021/12/08 10:17:13;;;;;;;6.55;3.72;;;;;;;11.02;38.85;93788.97;5030901;28;20491;-70
2021/12/08 10:19:39;;;;;;;11.00;3.92;;;;;;;11.05;38.80;93785.59;5028864;28;20017;-70
2021/12/08 10:22:14;;;;;;;4.55;3.83;;;;;;;10.99;38.49;93779.75;5028681;28;20450;-69
2021/12/08 10:24:41;;;;;;;5.72;3.88;;;;;;;11.18;38.72;93793.22;5029176;28;20053;-70
2021/12/08 10:27:08;;;;;;;8.52;4.22;;;;;;;11.21;38.37;93799.75;5028210;28;20017;-70
2021/12/08 10:29:34;;;;;;;5.25;3.97;;;;;;;11.29;38.15;93790.81;5032032;28;20164;-70
2021/12/08 10:32:03;;;;;;;9.73;4.07;;;;;;;10.70;38.76;93766.78;5028891;28;20395;-70
2021/12/08 10:34:48;;;;;;;7.18;3.85;;;;;;;10.92;39.19;93764.38;5027575;28;20065;-71
2021/12/08 10:37:20;;;;;;;7.68;4.03;;;;;;;11.11;38.60;93792.25;5032040;28;20352;-78
2021/12/08 10:39:52;;;;;;;6.97;4.22;;;;;;;11.19;38.48;93788.66;5031514;28;20032;-75
2021/12/08 10:42:31;;;;;;;8.82;4.60;;;;;;;11.24;39.16;93779.66;5032234;28;20044;-75
2021/12/08 10:45:12;;;;;;;7.43;3.85;;;;;;;11.38;39.17;93777.38;5040965;28;20064;-75
2021/12/08 10:47:50;;;;;;;6.20;5.25;;;;;;;11.39;38.76;93761.03;5013413;28;20018;-75
2021/12/08 10:56:13;;;;;;;13.02;5.32;;;;;;;10.56;40.30;93777.81;5015577;28;20103;-72
2021/12/08 10:58:43;;;;;;;10.50;5.50;;;;;;;10.34;40.95;93761.25;5044609;28;20628;-70
2021/12/08 11:01:18;;;;;;;10.82;5.65;;;;;;;9.98;41.61;93767.34;5032151;28;20049;-74
2021/12/08 11:03:44;;;;;;;14.75;5.78;;;;;;;8.02;46.27;93779.91;5034328;28;20104;-74
2021/12/08 11:06:15;;;;;;;8.23;5.10;;;;;;;7.40;49.09;93788.44;5033408;28;20182;-78
2021/12/08 11:08:44;;;;;;;9.63;5.18;;;;;;;9.00;45.75;93788.41;5033208;28;20608;-86
2021/12/08 11:11:22;;;;;;;14.75;5.55;;;;;;;9.69;44.21;93780.84;5032646;28;20032;-76
2021/12/08 11:13:53;;;;;;;7.25;5.45;;;;;;;9.01;45.09;93784.69;5036216;28;20053;-80
2021/12/08 11:16:23;;;;;;;8.55;5.05;;;;;;;9.18;45.20;93772.34;5033237;28;20061;-84
2021/12/08 11:18:58;;;;;;;7.82;4.60;;;;;;;7.59;49.23;93788.06;5032850;28;20375;-85
2021/12/08 11:21:37;;;;;;;9.23;5.20;;;;;;;8.34;48.13;93778.50;5032340;28;20036;-78
2021/12/08 11:24:14;;;;;;;13.35;5.18;;;;;;;7.27;50.63;93774.34;5033073;28;20021;-77
2021/12/08 11:26:43;;;;;;;11.70;6.70;;;;;;;7.68;49.99;93769.53;5025908;28;20034;-76
2021/12/08 11:29:14;;;;;;;7.90;6.10;;;;;;;8.50;48.17;93746.13;5037279;28;20013;-74
2021/12/08 11:31:51;;;;;;;14.37;6.63;;;;;;;8.22;48.52;93735.25;5039528;28;20083;-73
2021/12/08 11:34:19;;;;;;;22.63;7.63;;;;;;;8.48;49.51;93733.19;5031665;28;20377;-67
2021/12/08 11:36:46;;;;;;;12.25;7.47;;;;;;;9.04;47.58;93732.84;5031356;28;20430;-67
2021/12/08 11:39:15;;;;;;;14.10;7.13;;;;;;;8.91;47.24;93729.41;5031820;28;20101;-81
2021/12/08 11:41:56;;;;;;;12.07;6.22;;;;;;;9.49;46.54;93734.69;5028952;28;20022;-81
2021/12/08 11:44:25;;;;;;;9.98;6.63;;;;;;;10.01;45.57;93747.31;5034039;28;20379;-82
2021/12/08 11:46:55;;;;;;;9.93;5.60;;;;;;;10.43;44.78;93736.41;5034003;28;20025;-71
2021/12/08 11:49:21;;;;;;;12.10;6.55;;;;;;;10.50;44.91;93733.97;5032825;28;20040;-81
2021/12/08 11:51:49;;;;;;;17.13;6.90;;;;;;;10.40;44.19;93746.59;5033509;28;20029;-80
2021/12/08 11:54:36;;;;;;;10.23;6.28;;;;;;;10.66;44.08;93740.09;5033621;28;20057;-81
2021/12/08 11:57:09;;;;;;;13.52;7.05;;;;;;;10.13;44.81;93741.97;5031397;28;20049;-80
2021/12/08 12:00:06;;;;;;;9.77;6.80;;;;;;;10.13;44.57;93728.69;5032961;28;20021;-80
2021/12/08 12:02:36;;;;;;;16.27;7.88;;;;;;;8.79;48.26;93716.84;5005571;28;20399;-81
2021/12/08 12:05:09;;;;;;;13.02;8.40;;;;;;;8.77;49.00;93702.38;5013759;28;20032;-80
2021/12/08 12:07:35;;;;;;;13.38;8.15;;;;;;;8.39;50.50;93718.47;5012623;28;20049;-79
2021/12/08 12:10:01;;;;;;;8.85;7.07;;;;;;;8.18;50.25;93716.56;5011644;28;20369;-80
2021/12/08 12:12:27;;;;;;;18.48;8.45;;;;;;;8.52;50.15;93728.81;5023161;28;20047;-81
2021/12/08 12:14:52;;;;;;;14.43;8.55;;;;;;;7.78;51.59;93743.47;5050911;28;20530;-77
2021/12/08 12:17:18;;;;;;;17.90;8.75;;;;;;;8.05;51.73;93730.84;5033555;28;20022;-77
2021/12/08 12:20:18;;;;;;;13.32;8.40;;;;;;;8.77;51.04;93729.69;5032459;28;20687;-77
2021/12/08 12:23:13;;;;;;;15.18;9.45;;;;;;;8.47;51.31;93699.84;5031338;28;20025;-77
2021/12/08 12:26:06;;;;;;;14.75;10.15;;;;;;;8.74;51.03;93713.63;5032428;28;20091;-78
2021/12/08 12:29:27;;;;;;;17.08;9.57;;;;;;;8.62;51.81;93730.28;5029687;28;20104;-78
2021/12/08 12:31:54;;;;;;;14.93;9.98;;;;;;;9.14;52.04;93721.81;5032620;28;20021;-79
2021/12/08 12:34:24;;;;;;;17.13;10.75;;;;;;;9.52;51.01;93723.41;5032412;28;20029;-77
2021/12/08 12:36:50;;;;;;;14.13;10.63;;;;;;;9.63;51.13;93717.34;5032118;28;20022;-79
2021/12/08 12:39:23;;;;;;;16.05;10.15;;;;;;;9.97;50.46;93727.81;5031776;28;20021;-77
2021/12/08 12:42:14;;;;;;;15.93;10.50;;;;;;;10.15;50.65;93753.03;5030246;28;20032;-77